sensor_id;sensor_type;location;lat;lon;timestamp;P1;durP1;ratioP1;P2;durP2;ratioP2
49241;SDS011;35079;52.704;13.814;2022-07-29T00:02:02;6.82;;;3.47;;
49241;SDS011;35079;52.704;13.814;2022-07-29T00:04:28;5.95;;;3.50;;
49241;SDS011;35079;52.704;13.814;2022-07-29T00:06:54;5.82;;;3.17;;
49241;SDS011;35079;52.704;13.814;2022-07-29T00:09:20;7.13;;;3.33;;
49241;SDS011;35079;52.704;13.814;2022-07-29T00:11:46;9.07;;;3.28;;
49241;SDS011;35079;52.704;13.814;2022-07-29T00:14:11;5.47;;;3.10;;
49241;SDS011;35079;52.704;13.814;2022-07-29T00:16:37;6.55;;;3.40;;
49241;SDS011;35079;52.704;13.814;2022-07-29T00:19:03;5.20;;;3.22;;
49241;SDS011;35079;52.704;13.814;2022-07-29T00:21:29;5.80;;;3.10;;
49241;SDS011;35079;52.704;13.814;2022-07-29T00:23:54;4.45;;;2.97;;
49241;SDS011;35079;52.704;13.814;2022-07-29T00:26:20;6.15;;;2.92;;
49241;SDS011;35079;52.704;13.814;2022-07-29T00:28:46;6.63;;;3.35;;
49241;SDS011;35079;52.704;13.814;2022-07-29T00:31:12;5.32;;;3.05;;
49241;SDS011;35079;52.704;13.814;2022-07-29T00:33:37;7.72;;;3.50;;
49241;SDS011;35079;52.704;13.814;2022-07-29T00:36:03;7.97;;;3.17;;
49241;SDS011;35079;52.704;13.814;2022-07-29T00:38:29;5.50;;;2.80;;
49241;SDS011;35079;52.704;13.814;2022-07-29T00:40:55;4.88;;;2.70;;
49241;SDS011;35079;52.704;13.814;2022-07-29T00:43:20;7.80;;;3.20;;
49241;SDS011;35079;52.704;13.814;2022-07-29T00:45:46;6.65;;;2.85;;
49241;SDS011;35079;52.704;13.814;2022-07-29T00:48:12;6.05;;;2.75;;
49241;SDS011;35079;52.704;13.814;2022-07-29T00:50:38;6.95;;;3.10;;
49241;SDS011;35079;52.704;13.814;2022-07-29T00:53:05;5.43;;;3.15;;
49241;SDS011;35079;52.704;13.814;2022-07-29T00:55:32;8.98;;;3.25;;
49241;SDS011;35079;52.704;13.814;2022-07-29T00:57:58;6.22;;;3.00;;
49241;SDS011;35079;52.704;13.814;2022-07-29T01:00:25;5.70;;;2.95;;
49241;SDS011;35079;52.704;13.814;2022-07-29T01:02:52;6.80;;;3.28;;
49241;SDS011;35079;52.704;13.814;2022-07-29T01:05:19;4.88;;;3.15;;
49241;SDS011;35079;52.704;13.814;2022-07-29T01:07:46;5.60;;;2.97;;
49241;SDS011;35079;52.704;13.814;2022-07-29T01:10:16;5.40;;;2.72;;
49241;SDS011;35079;52.704;13.814;2022-07-29T01:12:44;7.07;;;3.00;;
49241;SDS011;35079;52.704;13.814;2022-07-29T01:15:12;8.02;;;2.88;;
49241;SDS011;35079;52.704;13.814;2022-07-29T01:29:18;9.55;;;2.90;;
49241;SDS011;35079;52.704;13.814;2022-07-29T01:31:59;6.55;;;3.15;;
49241;SDS011;35079;52.704;13.814;2022-07-29T01:34:41;7.55;;;3.63;;
49241;SDS011;35079;52.704;13.814;2022-07-29T01:37:18;8.00;;;3.03;;
49241;SDS011;35079;52.704;13.814;2022-07-29T01:39:49;5.55;;;2.80;;
49241;SDS011;35079;52.704;13.814;2022-07-29T01:50:37;5.88;;;2.60;;
49241;SDS011;35079;52.704;13.814;2022-07-29T01:53:12;5.88;;;2.90;;
49241;SDS011;35079;52.704;13.814;2022-07-29T01:55:46;4.85;;;2.55;;
49241;SDS011;35079;52.704;13.814;2022-07-29T01:58:14;3.95;;;2.95;;
49241;SDS011;35079;52.704;13.814;2022-07-29T02:00:44;6.90;;;2.95;;
49241;SDS011;35079;52.704;13.814;2022-07-29T02:03:11;7.18;;;2.63;;
49241;SDS011;35079;52.704;13.814;2022-07-29T02:05:39;9.30;;;2.95;;
49241;SDS011;35079;52.704;13.814;2022-07-29T02:08:07;5.55;;;2.58;;
49241;SDS011;35079;52.704;13.814;2022-07-29T02:10:34;8.50;;;2.90;;
49241;SDS011;35079;52.704;13.814;2022-07-29T02:13:03;6.47;;;2.70;;
49241;SDS011;35079;52.704;13.814;2022-07-29T02:15:31;4.88;;;2.42;;
49241;SDS011;35079;52.704;13.814;2022-07-29T02:18:04;3.05;;;2.40;;
49241;SDS011;35079;52.704;13.814;2022-07-29T02:20:34;5.53;;;2.58;;
49241;SDS011;35079;52.704;13.814;2022-07-29T02:23:00;4.32;;;2.70;;
49241;SDS011;35079;52.704;13.814;2022-07-29T02:25:27;4.65;;;2.90;;
49241;SDS011;35079;52.704;13.814;2022-07-29T02:27:54;7.22;;;2.90;;
49241;SDS011;35079;52.704;13.814;2022-07-29T02:30:21;6.72;;;2.67;;
49241;SDS011;35079;52.704;13.814;2022-07-29T02:32:48;5.80;;;2.75;;
49241;SDS011;35079;52.704;13.814;2022-07-29T02:35:16;7.40;;;2.63;;
49241;SDS011;35079;52.704;13.814;2022-07-29T02:37:43;4.88;;;2.58;;
49241;SDS011;35079;52.704;13.814;2022-07-29T02:40:30;7.65;;;3.08;;
49241;SDS011;35079;52.704;13.814;2022-07-29T02:42:57;4.60;;;2.72;;
49241;SDS011;35079;52.704;13.814;2022-07-29T02:45:23;4.07;;;2.75;;
49241;SDS011;35079;52.704;13.814;2022-07-29T02:47:49;8.02;;;2.90;;
49241;SDS011;35079;52.704;13.814;2022-07-29T02:50:20;3.80;;;2.28;;
49241;SDS011;35079;52.704;13.814;2022-07-29T02:53:00;6.93;;;3.00;;
49241;SDS011;35079;52.704;13.814;2022-07-29T02:55:35;5.72;;;2.90;;
49241;SDS011;35079;52.704;13.814;2022-07-29T02:58:10;4.63;;;2.90;;
49241;SDS011;35079;52.704;13.814;2022-07-29T03:00:43;7.03;;;3.03;;
49241;SDS011;35079;52.704;13.814;2022-07-29T03:03:15;7.07;;;3.03;;
49241;SDS011;35079;52.704;13.814;2022-07-29T03:05:42;6.72;;;2.50;;
49241;SDS011;35079;52.704;13.814;2022-07-29T03:08:09;4.65;;;2.45;;
49241;SDS011;35079;52.704;13.814;2022-07-29T03:10:37;5.40;;;2.65;;
49241;SDS011;35079;52.704;13.814;2022-07-29T03:13:05;5.95;;;2.63;;
49241;SDS011;35079;52.704;13.814;2022-07-29T03:15:32;6.05;;;2.55;;
49241;SDS011;35079;52.704;13.814;2022-07-29T03:17:59;5.05;;;2.25;;
49241;SDS011;35079;52.704;13.814;2022-07-29T03:20:25;7.15;;;2.65;;
49241;SDS011;35079;52.704;13.814;2022-07-29T03:22:51;5.85;;;2.65;;
49241;SDS011;35079;52.704;13.814;2022-07-29T03:25:18;5.63;;;2.63;;
49241;SDS011;35079;52.704;13.814;2022-07-29T03:27:45;6.60;;;2.50;;
49241;SDS011;35079;52.704;13.814;2022-07-29T03:30:14;4.72;;;2.63;;
49241;SDS011;35079;52.704;13.814;2022-07-29T03:32:40;4.57;;;2.70;;
49241;SDS011;35079;52.704;13.814;2022-07-29T03:35:06;6.65;;;2.58;;
49241;SDS011;35079;52.704;13.814;2022-07-29T03:37:33;5.80;;;2.50;;
49241;SDS011;35079;52.704;13.814;2022-07-29T03:40:02;5.25;;;2.70;;
49241;SDS011;35079;52.704;13.814;2022-07-29T03:42:33;6.93;;;2.75;;
49241;SDS011;35079;52.704;13.814;2022-07-29T03:45:03;5.97;;;2.50;;
49241;SDS011;35079;52.704;13.814;2022-07-29T03:47:32;6.30;;;2.70;;
49241;SDS011;35079;52.704;13.814;2022-07-29T03:50:02;5.43;;;2.40;;
49241;SDS011;35079;52.704;13.814;2022-07-29T03:52:31;4.82;;;2.45;;
49241;SDS011;35079;52.704;13.814;2022-07-29T03:54:57;6.05;;;2.42;;
49241;SDS011;35079;52.704;13.814;2022-07-29T03:57:27;6.90;;;2.65;;
49241;SDS011;35079;52.704;13.814;2022-07-29T03:59:54;5.53;;;2.67;;
49241;SDS011;35079;52.704;13.814;2022-07-29T04:02:27;6.60;;;2.58;;
49241;SDS011;35079;52.704;13.814;2022-07-29T04:04:53;6.68;;;2.53;;
49241;SDS011;35079;52.704;13.814;2022-07-29T04:07:23;5.93;;;2.60;;
49241;SDS011;35079;52.704;13.814;2022-07-29T04:09:54;5.28;;;2.55;;
49241;SDS011;35079;52.704;13.814;2022-07-29T04:12:38;5.78;;;2.45;;
49241;SDS011;35079;52.704;13.814;2022-07-29T04:15:04;4.25;;;2.42;;
49241;SDS011;35079;52.704;13.814;2022-07-29T04:17:30;7.28;;;2.67;;
49241;SDS011;35079;52.704;13.814;2022-07-29T04:19:59;4.30;;;2.42;;
49241;SDS011;35079;52.704;13.814;2022-07-29T04:22:25;9.02;;;2.45;;
49241;SDS011;35079;52.704;13.814;2022-07-29T04:24:51;4.97;;;2.33;;
49241;SDS011;35079;52.704;13.814;2022-07-29T04:29:58;8.30;;;2.67;;
49241;SDS011;35079;52.704;13.814;2022-07-29T04:32:34;4.65;;;2.83;;
49241;SDS011;35079;52.704;13.814;2022-07-29T04:35:03;7.85;;;3.20;;
49241;SDS011;35079;52.704;13.814;2022-07-29T04:53:51;5.00;;;2.50;;
49241;SDS011;35079;52.704;13.814;2022-07-29T05:10:06;5.68;;;2.53;;
49241;SDS011;35079;52.704;13.814;2022-07-29T05:16:48;5.20;;;2.85;;
49241;SDS011;35079;52.704;13.814;2022-07-29T05:19:33;3.65;;;2.30;;
49241;SDS011;35079;52.704;13.814;2022-07-29T05:22:18;5.35;;;2.88;;
49241;SDS011;35079;52.704;13.814;2022-07-29T05:24:50;5.70;;;2.67;;
49241;SDS011;35079;52.704;13.814;2022-07-29T05:27:15;4.78;;;2.10;;
49241;SDS011;35079;52.704;13.814;2022-07-29T05:29:41;4.40;;;2.45;;
49241;SDS011;35079;52.704;13.814;2022-07-29T05:32:07;4.60;;;2.67;;
49241;SDS011;35079;52.704;13.814;2022-07-29T05:34:33;5.65;;;2.40;;
49241;SDS011;35079;52.704;13.814;2022-07-29T05:36:59;6.50;;;2.78;;
49241;SDS011;35079;52.704;13.814;2022-07-29T05:39:24;7.15;;;2.60;;
49241;SDS011;35079;52.704;13.814;2022-07-29T05:41:53;5.43;;;2.58;;
49241;SDS011;35079;52.704;13.814;2022-07-29T05:44:19;5.60;;;2.70;;
49241;SDS011;35079;52.704;13.814;2022-07-29T05:46:45;6.88;;;2.63;;
49241;SDS011;35079;52.704;13.814;2022-07-29T05:49:13;4.80;;;2.38;;
49241;SDS011;35079;52.704;13.814;2022-07-29T05:51:39;6.78;;;2.20;;
49241;SDS011;35079;52.704;13.814;2022-07-29T05:54:08;4.82;;;2.30;;
49241;SDS011;35079;52.704;13.814;2022-07-29T05:56:35;3.20;;;2.40;;
49241;SDS011;35079;52.704;13.814;2022-07-29T05:59:01;6.93;;;2.63;;
49241;SDS011;35079;52.704;13.814;2022-07-29T06:01:28;5.47;;;2.58;;
49241;SDS011;35079;52.704;13.814;2022-07-29T06:03:54;5.72;;;2.70;;
49241;SDS011;35079;52.704;13.814;2022-07-29T06:06:19;5.65;;;2.15;;
49241;SDS011;35079;52.704;13.814;2022-07-29T06:08:48;7.15;;;2.55;;
49241;SDS011;35079;52.704;13.814;2022-07-29T06:11:13;6.25;;;2.53;;
49241;SDS011;35079;52.704;13.814;2022-07-29T06:13:39;5.20;;;2.55;;
49241;SDS011;35079;52.704;13.814;2022-07-29T06:16:05;4.70;;;2.47;;
49241;SDS011;35079;52.704;13.814;2022-07-29T06:18:30;4.20;;;2.47;;
49241;SDS011;35079;52.704;13.814;2022-07-29T06:20:56;4.75;;;2.65;;
49241;SDS011;35079;52.704;13.814;2022-07-29T06:23:22;5.70;;;2.70;;
49241;SDS011;35079;52.704;13.814;2022-07-29T06:25:47;7.32;;;2.50;;
49241;SDS011;35079;52.704;13.814;2022-07-29T06:28:13;5.28;;;2.92;;
49241;SDS011;35079;52.704;13.814;2022-07-29T06:30:39;5.93;;;2.60;;
49241;SDS011;35079;52.704;13.814;2022-07-29T06:33:05;5.50;;;2.70;;
49241;SDS011;35079;52.704;13.814;2022-07-29T06:35:34;4.35;;;2.40;;
49241;SDS011;35079;52.704;13.814;2022-07-29T06:38:02;6.82;;;2.45;;
49241;SDS011;35079;52.704;13.814;2022-07-29T06:40:28;6.63;;;2.40;;
49241;SDS011;35079;52.704;13.814;2022-07-29T06:43:12;6.30;;;2.33;;
49241;SDS011;35079;52.704;13.814;2022-07-29T06:45:37;6.47;;;2.67;;
49241;SDS011;35079;52.704;13.814;2022-07-29T06:48:05;4.93;;;2.35;;
49241;SDS011;35079;52.704;13.814;2022-07-29T06:50:31;6.55;;;2.50;;
49241;SDS011;35079;52.704;13.814;2022-07-29T06:52:57;7.80;;;2.38;;
49241;SDS011;35079;52.704;13.814;2022-07-29T06:55:23;8.52;;;2.17;;
49241;SDS011;35079;52.704;13.814;2022-07-29T06:57:52;4.85;;;2.20;;
49241;SDS011;35079;52.704;13.814;2022-07-29T07:00:18;4.97;;;2.33;;
49241;SDS011;35079;52.704;13.814;2022-07-29T07:02:56;7.05;;;1.90;;
49241;SDS011;35079;52.704;13.814;2022-07-29T07:05:21;5.78;;;2.13;;
49241;SDS011;35079;52.704;13.814;2022-07-29T07:07:47;3.75;;;2.08;;
49241;SDS011;35079;52.704;13.814;2022-07-29T07:10:13;4.88;;;2.03;;
49241;SDS011;35079;52.704;13.814;2022-07-29T07:12:50;2.92;;;2.10;;
49241;SDS011;35079;52.704;13.814;2022-07-29T07:15:16;4.05;;;2.03;;
49241;SDS011;35079;52.704;13.814;2022-07-29T07:21:04;4.82;;;2.10;;
49241;SDS011;35079;52.704;13.814;2022-07-29T07:23:30;3.97;;;2.08;;
49241;SDS011;35079;52.704;13.814;2022-07-29T07:25:56;7.88;;;2.15;;
49241;SDS011;35079;52.704;13.814;2022-07-29T07:28:31;5.85;;;2.42;;
49241;SDS011;35079;52.704;13.814;2022-07-29T07:31:51;6.65;;;2.13;;
49241;SDS011;35079;52.704;13.814;2022-07-29T07:34:37;6.05;;;2.05;;
49241;SDS011;35079;52.704;13.814;2022-07-29T07:37:08;5.53;;;2.10;;
49241;SDS011;35079;52.704;13.814;2022-07-29T07:39:45;5.18;;;1.98;;
49241;SDS011;35079;52.704;13.814;2022-07-29T07:46:25;3.72;;;1.92;;
49241;SDS011;35079;52.704;13.814;2022-07-29T07:55:45;4.07;;;1.90;;
49241;SDS011;35079;52.704;13.814;2022-07-29T07:58:11;4.38;;;1.92;;
49241;SDS011;35079;52.704;13.814;2022-07-29T08:00:36;6.28;;;1.85;;
49241;SDS011;35079;52.704;13.814;2022-07-29T08:03:02;3.72;;;1.80;;
49241;SDS011;35079;52.704;13.814;2022-07-29T08:05:28;2.28;;;1.88;;
49241;SDS011;35079;52.704;13.814;2022-07-29T08:07:54;6.20;;;1.88;;
49241;SDS011;35079;52.704;13.814;2022-07-29T08:10:20;4.38;;;2.13;;
49241;SDS011;35079;52.704;13.814;2022-07-29T08:13:05;4.65;;;1.95;;
49241;SDS011;35079;52.704;13.814;2022-07-29T08:15:31;5.78;;;2.20;;
49241;SDS011;35079;52.704;13.814;2022-07-29T08:17:57;3.47;;;2.03;;
49241;SDS011;35079;52.704;13.814;2022-07-29T08:20:23;4.10;;;2.05;;
49241;SDS011;35079;52.704;13.814;2022-07-29T08:22:49;5.60;;;1.98;;
49241;SDS011;35079;52.704;13.814;2022-07-29T08:25:14;5.22;;;2.40;;
49241;SDS011;35079;52.704;13.814;2022-07-29T08:27:40;6.05;;;2.00;;
49241;SDS011;35079;52.704;13.814;2022-07-29T08:30:06;5.28;;;1.80;;
49241;SDS011;35079;52.704;13.814;2022-07-29T08:32:32;3.53;;;1.92;;
49241;SDS011;35079;52.704;13.814;2022-07-29T08:34:58;5.28;;;1.98;;
49241;SDS011;35079;52.704;13.814;2022-07-29T08:37:23;3.25;;;2.10;;
49241;SDS011;35079;52.704;13.814;2022-07-29T08:39:49;2.90;;;1.70;;
49241;SDS011;35079;52.704;13.814;2022-07-29T08:42:14;7.85;;;2.10;;
49241;SDS011;35079;52.704;13.814;2022-07-29T08:44:41;8.93;;;2.25;;
49241;SDS011;35079;52.704;13.814;2022-07-29T08:47:07;4.05;;;1.80;;
49241;SDS011;35079;52.704;13.814;2022-07-29T08:49:34;5.03;;;1.88;;
49241;SDS011;35079;52.704;13.814;2022-07-29T08:52:00;5.72;;;1.77;;
49241;SDS011;35079;52.704;13.814;2022-07-29T08:54:27;4.47;;;1.80;;
49241;SDS011;35079;52.704;13.814;2022-07-29T08:56:54;4.85;;;1.80;;
49241;SDS011;35079;52.704;13.814;2022-07-29T08:59:21;6.00;;;1.73;;
49241;SDS011;35079;52.704;13.814;2022-07-29T09:01:50;5.72;;;1.77;;
49241;SDS011;35079;52.704;13.814;2022-07-29T09:04:18;4.90;;;2.15;;
49241;SDS011;35079;52.704;13.814;2022-07-29T09:06:45;4.00;;;1.70;;
49241;SDS011;35079;52.704;13.814;2022-07-29T09:09:13;4.25;;;1.83;;
49241;SDS011;35079;52.704;13.814;2022-07-29T09:11:39;4.38;;;1.60;;
49241;SDS011;35079;52.704;13.814;2022-07-29T09:14:05;4.82;;;1.90;;
49241;SDS011;35079;52.704;13.814;2022-07-29T09:19:31;2.42;;;1.60;;
49241;SDS011;35079;52.704;13.814;2022-07-29T09:22:00;5.28;;;1.90;;
49241;SDS011;35079;52.704;13.814;2022-07-29T09:27:08;8.52;;;1.77;;
49241;SDS011;35079;52.704;13.814;2022-07-29T09:32:30;3.88;;;1.75;;
49241;SDS011;35079;52.704;13.814;2022-07-29T09:35:18;2.25;;;1.33;;
49241;SDS011;35079;52.704;13.814;2022-07-29T09:37:45;5.53;;;1.52;;
49241;SDS011;35079;52.704;13.814;2022-07-29T09:40:22;3.88;;;1.73;;
49241;SDS011;35079;52.704;13.814;2022-07-29T09:42:50;6.43;;;1.95;;
49241;SDS011;35079;52.704;13.814;2022-07-29T09:45:33;6.35;;;2.08;;
49241;SDS011;35079;52.704;13.814;2022-07-29T09:47:59;2.38;;;1.45;;
49241;SDS011;35079;52.704;13.814;2022-07-29T09:50:38;2.58;;;1.67;;
49241;SDS011;35079;52.704;13.814;2022-07-29T09:53:05;6.60;;;1.60;;
49241;SDS011;35079;52.704;13.814;2022-07-29T09:55:31;3.20;;;1.75;;
49241;SDS011;35079;52.704;13.814;2022-07-29T09:58:19;5.25;;;1.58;;
49241;SDS011;35079;52.704;13.814;2022-07-29T10:00:46;3.55;;;1.40;;
49241;SDS011;35079;52.704;13.814;2022-07-29T10:03:13;3.92;;;1.70;;
49241;SDS011;35079;52.704;13.814;2022-07-29T10:05:40;6.55;;;1.70;;
49241;SDS011;35079;52.704;13.814;2022-07-29T10:08:07;4.38;;;1.88;;
49241;SDS011;35079;52.704;13.814;2022-07-29T10:10:35;6.95;;;1.65;;
49241;SDS011;35079;52.704;13.814;2022-07-29T10:13:04;3.28;;;1.73;;
49241;SDS011;35079;52.704;13.814;2022-07-29T10:15:32;2.55;;;1.23;;
49241;SDS011;35079;52.704;13.814;2022-07-29T10:18:03;6.22;;;1.58;;
49241;SDS011;35079;52.704;13.814;2022-07-29T10:20:30;2.25;;;1.38;;
49241;SDS011;35079;52.704;13.814;2022-07-29T10:22:56;3.50;;;1.40;;
49241;SDS011;35079;52.704;13.814;2022-07-29T10:25:23;4.75;;;1.60;;
49241;SDS011;35079;52.704;13.814;2022-07-29T10:27:49;3.65;;;1.63;;
49241;SDS011;35079;52.704;13.814;2022-07-29T10:30:22;8.43;;;1.92;;
49241;SDS011;35079;52.704;13.814;2022-07-29T10:38:34;7.00;;;1.90;;
49241;SDS011;35079;52.704;13.814;2022-07-29T10:41:30;3.55;;;1.73;;
49241;SDS011;35079;52.704;13.814;2022-07-29T10:46:36;4.27;;;1.70;;
49241;SDS011;35079;52.704;13.814;2022-07-29T10:49:04;2.35;;;1.33;;
49241;SDS011;35079;52.704;13.814;2022-07-29T10:51:51;3.97;;;1.60;;
49241;SDS011;35079;52.704;13.814;2022-07-29T10:54:38;4.45;;;1.58;;
49241;SDS011;35079;52.704;13.814;2022-07-29T10:57:14;2.35;;;1.48;;
49241;SDS011;35079;52.704;13.814;2022-07-29T10:59:43;4.70;;;1.63;;
49241;SDS011;35079;52.704;13.814;2022-07-29T11:05:16;5.75;;;1.73;;
49241;SDS011;35079;52.704;13.814;2022-07-29T11:10:45;7.90;;;1.77;;
49241;SDS011;35079;52.704;13.814;2022-07-29T11:13:57;3.47;;;1.70;;
49241;SDS011;35079;52.704;13.814;2022-07-29T11:16:06;4.03;;;1.98;;
49241;SDS011;35079;52.704;13.814;2022-07-29T11:18:32;4.22;;;1.75;;
49241;SDS011;35079;52.704;13.814;2022-07-29T11:20:58;2.13;;;1.60;;
49241;SDS011;35079;52.704;13.814;2022-07-29T11:28:48;3.65;;;1.90;;
49241;SDS011;35079;52.704;13.814;2022-07-29T11:31:19;5.43;;;1.92;;
49241;SDS011;35079;52.704;13.814;2022-07-29T11:34:16;7.03;;;1.90;;
49241;SDS011;35079;52.704;13.814;2022-07-29T11:39:39;2.53;;;1.80;;
49241;SDS011;35079;52.704;13.814;2022-07-29T11:45:02;3.90;;;2.00;;
49241;SDS011;35079;52.704;13.814;2022-07-29T11:47:36;3.45;;;1.50;;
49241;SDS011;35079;52.704;13.814;2022-07-29T11:50:12;3.08;;;2.10;;
49241;SDS011;35079;52.704;13.814;2022-07-29T11:52:44;7.07;;;2.00;;
49241;SDS011;35079;52.704;13.814;2022-07-29T11:55:14;2.63;;;1.70;;
49241;SDS011;35079;52.704;13.814;2022-07-29T11:57:47;4.90;;;1.70;;
49241;SDS011;35079;52.704;13.814;2022-07-29T12:00:22;3.40;;;1.90;;
49241;SDS011;35079;52.704;13.814;2022-07-29T12:02:53;3.88;;;1.90;;
49241;SDS011;35079;52.704;13.814;2022-07-29T12:05:20;8.15;;;2.10;;
49241;SDS011;35079;52.704;13.814;2022-07-29T12:07:47;3.38;;;2.15;;
49241;SDS011;35079;52.704;13.814;2022-07-29T12:10:13;5.53;;;2.10;;
49241;SDS011;35079;52.704;13.814;2022-07-29T12:12:40;3.38;;;1.92;;
49241;SDS011;35079;52.704;13.814;2022-07-29T12:15:15;4.53;;;2.28;;
49241;SDS011;35079;52.704;13.814;2022-07-29T12:17:44;3.78;;;1.90;;
49241;SDS011;35079;52.704;13.814;2022-07-29T12:20:10;2.63;;;1.95;;
49241;SDS011;35079;52.704;13.814;2022-07-29T12:22:38;4.05;;;2.17;;
49241;SDS011;35079;52.704;13.814;2022-07-29T12:25:12;5.63;;;2.25;;
49241;SDS011;35079;52.704;13.814;2022-07-29T12:27:43;3.33;;;1.73;;
49241;SDS011;35079;52.704;13.814;2022-07-29T12:30:10;4.65;;;2.10;;
49241;SDS011;35079;52.704;13.814;2022-07-29T12:32:39;6.00;;;1.80;;
49241;SDS011;35079;52.704;13.814;2022-07-29T12:35:07;3.65;;;2.28;;
49241;SDS011;35079;52.704;13.814;2022-07-29T12:37:35;3.85;;;2.08;;
49241;SDS011;35079;52.704;13.814;2022-07-29T12:40:03;5.45;;;2.28;;
49241;SDS011;35079;52.704;13.814;2022-07-29T12:42:29;4.07;;;1.92;;
49241;SDS011;35079;52.704;13.814;2022-07-29T12:44:55;3.13;;;1.85;;
49241;SDS011;35079;52.704;13.814;2022-07-29T12:47:21;3.78;;;2.03;;
49241;SDS011;35079;52.704;13.814;2022-07-29T12:49:48;7.85;;;2.40;;
49241;SDS011;35079;52.704;13.814;2022-07-29T12:54:53;4.20;;;2.13;;
49241;SDS011;35079;52.704;13.814;2022-07-29T12:57:19;3.60;;;2.20;;
49241;SDS011;35079;52.704;13.814;2022-07-29T12:59:45;3.65;;;2.10;;
49241;SDS011;35079;52.704;13.814;2022-07-29T13:02:23;8.80;;;2.05;;
49241;SDS011;35079;52.704;13.814;2022-07-29T13:04:56;4.45;;;2.15;;
49241;SDS011;35079;52.704;13.814;2022-07-29T13:09:49;3.70;;;2.30;;
49241;SDS011;35079;52.704;13.814;2022-07-29T13:12:15;3.80;;;2.13;;
49241;SDS011;35079;52.704;13.814;2022-07-29T13:14:45;3.25;;;2.17;;
49241;SDS011;35079;52.704;13.814;2022-07-29T13:19:50;6.95;;;2.05;;
49241;SDS011;35079;52.704;13.814;2022-07-29T13:22:18;6.75;;;2.08;;
49241;SDS011;35079;52.704;13.814;2022-07-29T13:24:47;3.83;;;1.95;;
49241;SDS011;35079;52.704;13.814;2022-07-29T13:27:16;4.05;;;2.40;;
49241;SDS011;35079;52.704;13.814;2022-07-29T13:29:43;5.38;;;2.10;;
49241;SDS011;35079;52.704;13.814;2022-07-29T13:32:08;4.47;;;1.83;;
49241;SDS011;35079;52.704;13.814;2022-07-29T13:34:34;3.80;;;1.92;;
49241;SDS011;35079;52.704;13.814;2022-07-29T13:37:00;5.63;;;2.10;;
49241;SDS011;35079;52.704;13.814;2022-07-29T13:39:25;5.25;;;1.95;;
49241;SDS011;35079;52.704;13.814;2022-07-29T13:41:51;2.70;;;1.80;;
49241;SDS011;35079;52.704;13.814;2022-07-29T13:44:17;5.07;;;2.10;;
49241;SDS011;35079;52.704;13.814;2022-07-29T13:46:43;4.68;;;2.00;;
49241;SDS011;35079;52.704;13.814;2022-07-29T13:49:08;3.70;;;1.98;;
49241;SDS011;35079;52.704;13.814;2022-07-29T13:51:35;7.93;;;1.83;;
49241;SDS011;35079;52.704;13.814;2022-07-29T13:54:01;3.90;;;1.73;;
49241;SDS011;35079;52.704;13.814;2022-07-29T13:56:27;4.78;;;1.90;;
49241;SDS011;35079;52.704;13.814;2022-07-29T13:58:53;7.70;;;2.13;;
49241;SDS011;35079;52.704;13.814;2022-07-29T14:01:19;3.97;;;1.85;;
49241;SDS011;35079;52.704;13.814;2022-07-29T14:03:44;5.35;;;2.13;;
49241;SDS011;35079;52.704;13.814;2022-07-29T14:06:10;6.43;;;1.98;;
49241;SDS011;35079;52.704;13.814;2022-07-29T14:08:35;4.05;;;2.17;;
49241;SDS011;35079;52.704;13.814;2022-07-29T14:11:01;4.50;;;2.10;;
49241;SDS011;35079;52.704;13.814;2022-07-29T14:13:27;4.50;;;2.10;;
49241;SDS011;35079;52.704;13.814;2022-07-29T14:15:52;4.20;;;1.67;;
49241;SDS011;35079;52.704;13.814;2022-07-29T14:18:18;7.40;;;1.80;;
49241;SDS011;35079;52.704;13.814;2022-07-29T14:20:43;4.97;;;1.80;;
49241;SDS011;35079;52.704;13.814;2022-07-29T14:23:09;4.28;;;2.08;;
49241;SDS011;35079;52.704;13.814;2022-07-29T14:25:35;4.30;;;1.98;;
49241;SDS011;35079;52.704;13.814;2022-07-29T14:28:00;5.22;;;1.95;;
49241;SDS011;35079;52.704;13.814;2022-07-29T14:30:26;4.95;;;2.00;;
49241;SDS011;35079;52.704;13.814;2022-07-29T14:32:52;4.45;;;1.80;;
49241;SDS011;35079;52.704;13.814;2022-07-29T14:35:17;5.78;;;2.00;;
49241;SDS011;35079;52.704;13.814;2022-07-29T14:37:43;3.67;;;2.15;;
49241;SDS011;35079;52.704;13.814;2022-07-29T14:40:09;3.97;;;1.92;;
49241;SDS011;35079;52.704;13.814;2022-07-29T14:42:35;2.47;;;1.90;;
49241;SDS011;35079;52.704;13.814;2022-07-29T14:45:02;4.22;;;2.10;;
49241;SDS011;35079;52.704;13.814;2022-07-29T14:47:29;3.70;;;2.10;;
49241;SDS011;35079;52.704;13.814;2022-07-29T14:49:55;6.65;;;2.25;;
49241;SDS011;35079;52.704;13.814;2022-07-29T14:52:20;4.25;;;2.20;;
49241;SDS011;35079;52.704;13.814;2022-07-29T14:54:46;6.13;;;2.33;;
49241;SDS011;35079;52.704;13.814;2022-07-29T14:57:11;8.30;;;2.20;;
49241;SDS011;35079;52.704;13.814;2022-07-29T14:59:37;4.38;;;1.98;;
49241;SDS011;35079;52.704;13.814;2022-07-29T15:02:03;4.18;;;1.85;;
49241;SDS011;35079;52.704;13.814;2022-07-29T15:04:28;7.30;;;2.08;;
49241;SDS011;35079;52.704;13.814;2022-07-29T15:06:54;2.78;;;1.90;;
49241;SDS011;35079;52.704;13.814;2022-07-29T15:09:19;6.80;;;2.17;;
49241;SDS011;35079;52.704;13.814;2022-07-29T15:11:45;5.93;;;1.90;;
49241;SDS011;35079;52.704;13.814;2022-07-29T15:14:11;3.20;;;1.80;;
49241;SDS011;35079;52.704;13.814;2022-07-29T15:16:37;5.25;;;2.17;;
49241;SDS011;35079;52.704;13.814;2022-07-29T15:19:05;5.00;;;2.28;;
49241;SDS011;35079;52.704;13.814;2022-07-29T15:21:30;4.40;;;2.20;;
49241;SDS011;35079;52.704;13.814;2022-07-29T15:23:56;4.40;;;2.22;;
49241;SDS011;35079;52.704;13.814;2022-07-29T15:26:22;3.80;;;1.67;;
49241;SDS011;35079;52.704;13.814;2022-07-29T15:28:48;5.32;;;1.90;;
49241;SDS011;35079;52.704;13.814;2022-07-29T15:31:13;5.05;;;1.67;;
49241;SDS011;35079;52.704;13.814;2022-07-29T15:33:39;1.92;;;1.50;;
49241;SDS011;35079;52.704;13.814;2022-07-29T15:36:05;6.10;;;1.90;;
49241;SDS011;35079;52.704;13.814;2022-07-29T15:38:30;4.68;;;1.83;;
49241;SDS011;35079;52.704;13.814;2022-07-29T15:40:56;8.15;;;1.77;;
49241;SDS011;35079;52.704;13.814;2022-07-29T15:43:22;7.00;;;1.85;;
49241;SDS011;35079;52.704;13.814;2022-07-29T15:45:48;3.53;;;1.73;;
49241;SDS011;35079;52.704;13.814;2022-07-29T15:48:32;4.53;;;1.95;;
49241;SDS011;35079;52.704;13.814;2022-07-29T15:50:58;1.98;;;1.52;;
49241;SDS011;35079;52.704;13.814;2022-07-29T15:53:24;2.25;;;1.65;;
49241;SDS011;35079;52.704;13.814;2022-07-29T15:55:50;6.32;;;1.90;;
49241;SDS011;35079;52.704;13.814;2022-07-29T15:58:16;4.03;;;1.90;;
49241;SDS011;35079;52.704;13.814;2022-07-29T16:00:42;10.48;;;1.85;;
49241;SDS011;35079;52.704;13.814;2022-07-29T16:03:07;2.20;;;1.50;;
49241;SDS011;35079;52.704;13.814;2022-07-29T16:05:33;12.15;;;1.83;;
49241;SDS011;35079;52.704;13.814;2022-07-29T16:07:59;5.40;;;1.77;;
49241;SDS011;35079;52.704;13.814;2022-07-29T16:10:25;2.80;;;1.70;;
49241;SDS011;35079;52.704;13.814;2022-07-29T16:12:50;6.05;;;1.85;;
49241;SDS011;35079;52.704;13.814;2022-07-29T16:15:16;5.82;;;1.75;;
49241;SDS011;35079;52.704;13.814;2022-07-29T16:17:42;6.13;;;1.88;;
49241;SDS011;35079;52.704;13.814;2022-07-29T16:20:08;4.45;;;1.60;;
49241;SDS011;35079;52.704;13.814;2022-07-29T16:22:34;2.97;;;1.63;;
49241;SDS011;35079;52.704;13.814;2022-07-29T16:24:59;4.80;;;1.52;;
49241;SDS011;35079;52.704;13.814;2022-07-29T16:27:25;2.67;;;1.65;;
49241;SDS011;35079;52.704;13.814;2022-07-29T16:29:55;4.72;;;1.83;;
49241;SDS011;35079;52.704;13.814;2022-07-29T16:32:20;6.72;;;1.70;;
49241;SDS011;35079;52.704;13.814;2022-07-29T16:34:46;4.88;;;1.60;;